sensor_id;sensor_type;location;lat;lon;timestamp;P1;durP1;ratioP1;P2;durP2;ratioP2
11514;SDS011;5814;41.936;25.556;2022-11-06T00:02:12;12.37;;;10.43;;
11514;SDS011;5814;41.936;25.556;2022-11-06T00:04:39;14.73;;;10.57;;
11514;SDS011;5814;41.936;25.556;2022-11-06T00:07:06;12.93;;;11.20;;
11514;SDS011;5814;41.936;25.556;2022-11-06T00:09:33;12.97;;;11.20;;
11514;SDS011;5814;41.936;25.556;2022-11-06T00:12:01;12.30;;;11.20;;
11514;SDS011;5814;41.936;25.556;2022-11-06T00:14:28;12.67;;;11.40;;
11514;SDS011;5814;41.936;25.556;2022-11-06T00:16:55;16.00;;;11.80;;
11514;SDS011;5814;41.936;25.556;2022-11-06T00:19:22;14.43;;;11.83;;
11514;SDS011;5814;41.936;25.556;2022-11-06T00:21:49;16.30;;;14.47;;
11514;SDS011;5814;41.936;25.556;2022-11-06T00:24:17;18.33;;;16.57;;
11514;SDS011;5814;41.936;25.556;2022-11-06T00:26:44;17.20;;;15.60;;
11514;SDS011;5814;41.936;25.556;2022-11-06T00:29:13;17.80;;;16.00;;
11514;SDS011;5814;41.936;25.556;2022-11-06T00:31:39;19.83;;;16.30;;
11514;SDS011;5814;41.936;25.556;2022-11-06T00:34:06;19.03;;;17.07;;
11514;SDS011;5814;41.936;25.556;2022-11-06T00:36:34;20.13;;;17.63;;
11514;SDS011;5814;41.936;25.556;2022-11-06T00:39:01;21.07;;;18.97;;
11514;SDS011;5814;41.936;25.556;2022-11-06T00:41:28;25.70;;;19.50;;
11514;SDS011;5814;41.936;25.556;2022-11-06T00:43:56;23.53;;;20.50;;
11514;SDS011;5814;41.936;25.556;2022-11-06T00:46:22;24.43;;;21.60;;
11514;SDS011;5814;41.936;25.556;2022-11-06T00:48:50;27.63;;;22.33;;
11514;SDS011;5814;41.936;25.556;2022-11-06T00:51:19;26.83;;;22.30;;
11514;SDS011;5814;41.936;25.556;2022-11-06T00:53:46;25.00;;;22.33;;
11514;SDS011;5814;41.936;25.556;2022-11-06T00:56:14;24.07;;;21.53;;
11514;SDS011;5814;41.936;25.556;2022-11-06T00:58:41;25.17;;;22.50;;
11514;SDS011;5814;41.936;25.556;2022-11-06T01:01:10;25.70;;;22.47;;
11514;SDS011;5814;41.936;25.556;2022-11-06T01:03:53;26.83;;;22.80;;
11514;SDS011;5814;41.936;25.556;2022-11-06T01:06:20;26.83;;;23.63;;
11514;SDS011;5814;41.936;25.556;2022-11-06T01:08:46;27.13;;;23.50;;
11514;SDS011;5814;41.936;25.556;2022-11-06T01:11:15;26.60;;;22.93;;
11514;SDS011;5814;41.936;25.556;2022-11-06T01:13:45;24.83;;;22.27;;
11514;SDS011;5814;41.936;25.556;2022-11-06T01:16:12;25.10;;;22.47;;
11514;SDS011;5814;41.936;25.556;2022-11-06T01:18:39;24.47;;;22.10;;
11514;SDS011;5814;41.936;25.556;2022-11-06T01:21:07;24.30;;;21.83;;
11514;SDS011;5814;41.936;25.556;2022-11-06T01:23:33;25.67;;;22.23;;
11514;SDS011;5814;41.936;25.556;2022-11-06T01:26:01;25.70;;;22.47;;
11514;SDS011;5814;41.936;25.556;2022-11-06T01:28:28;25.87;;;23.23;;
11514;SDS011;5814;41.936;25.556;2022-11-06T01:30:54;24.80;;;22.30;;
11514;SDS011;5814;41.936;25.556;2022-11-06T01:33:22;25.90;;;23.23;;
11514;SDS011;5814;41.936;25.556;2022-11-06T01:35:49;25.43;;;23.10;;
11514;SDS011;5814;41.936;25.556;2022-11-06T01:38:16;25.97;;;23.50;;
11514;SDS011;5814;41.936;25.556;2022-11-06T01:40:44;25.33;;;22.77;;
11514;SDS011;5814;41.936;25.556;2022-11-06T01:43:16;26.30;;;23.40;;
11514;SDS011;5814;41.936;25.556;2022-11-06T01:45:43;26.40;;;22.70;;
11514;SDS011;5814;41.936;25.556;2022-11-06T01:48:09;26.43;;;22.87;;
11514;SDS011;5814;41.936;25.556;2022-11-06T01:50:36;27.20;;;23.60;;
11514;SDS011;5814;41.936;25.556;2022-11-06T01:53:04;32.00;;;22.97;;
11514;SDS011;5814;41.936;25.556;2022-11-06T01:55:35;29.30;;;23.17;;
11514;SDS011;5814;41.936;25.556;2022-11-06T01:57:59;25.30;;;22.30;;
11514;SDS011;5814;41.936;25.556;2022-11-06T02:00:26;23.93;;;21.43;;
11514;SDS011;5814;41.936;25.556;2022-11-06T02:02:53;25.30;;;21.53;;
11514;SDS011;5814;41.936;25.556;2022-11-06T02:05:20;24.70;;;22.13;;
11514;SDS011;5814;41.936;25.556;2022-11-06T02:07:47;24.03;;;21.63;;
11514;SDS011;5814;41.936;25.556;2022-11-06T02:10:15;25.60;;;22.50;;
11514;SDS011;5814;41.936;25.556;2022-11-06T02:15:26;25.77;;;23.40;;
11514;SDS011;5814;41.936;25.556;2022-11-06T02:21:23;27.77;;;24.77;;
11514;SDS011;5814;41.936;25.556;2022-11-06T02:24:02;28.20;;;24.87;;
11514;SDS011;5814;41.936;25.556;2022-11-06T02:29:07;28.30;;;25.57;;
11514;SDS011;5814;41.936;25.556;2022-11-06T02:31:33;28.63;;;25.63;;
11514;SDS011;5814;41.936;25.556;2022-11-06T02:34:01;31.47;;;26.63;;
11514;SDS011;5814;41.936;25.556;2022-11-06T02:36:29;29.73;;;26.60;;
11514;SDS011;5814;41.936;25.556;2022-11-06T02:38:56;31.23;;;26.80;;
11514;SDS011;5814;41.936;25.556;2022-11-06T02:41:23;30.00;;;26.93;;
11514;SDS011;5814;41.936;25.556;2022-11-06T02:43:52;39.73;;;28.70;;
11514;SDS011;5814;41.936;25.556;2022-11-06T02:46:20;32.60;;;27.47;;
11514;SDS011;5814;41.936;25.556;2022-11-06T02:48:48;35.97;;;28.53;;
11514;SDS011;5814;41.936;25.556;2022-11-06T02:51:14;31.77;;;28.43;;
11514;SDS011;5814;41.936;25.556;2022-11-06T02:53:41;34.77;;;28.80;;
11514;SDS011;5814;41.936;25.556;2022-11-06T02:56:08;34.10;;;29.43;;
11514;SDS011;5814;41.936;25.556;2022-11-06T02:58:37;36.80;;;29.83;;
11514;SDS011;5814;41.936;25.556;2022-11-06T03:01:06;34.17;;;30.57;;
11514;SDS011;5814;41.936;25.556;2022-11-06T03:03:33;34.43;;;29.93;;
11514;SDS011;5814;41.936;25.556;2022-11-06T03:06:06;34.03;;;30.50;;
11514;SDS011;5814;41.936;25.556;2022-11-06T03:08:39;33.07;;;28.17;;
11514;SDS011;5814;41.936;25.556;2022-11-06T03:11:08;31.37;;;27.07;;
11514;SDS011;5814;41.936;25.556;2022-11-06T03:14:08;29.97;;;26.67;;
11514;SDS011;5814;41.936;25.556;2022-11-06T03:16:27;29.17;;;25.93;;
11514;SDS011;5814;41.936;25.556;2022-11-06T03:18:58;29.10;;;26.00;;
11514;SDS011;5814;41.936;25.556;2022-11-06T03:21:25;30.80;;;26.87;;
11514;SDS011;5814;41.936;25.556;2022-11-06T03:23:55;30.03;;;26.77;;
11514;SDS011;5814;41.936;25.556;2022-11-06T03:26:26;27.40;;;24.50;;
11514;SDS011;5814;41.936;25.556;2022-11-06T03:28:53;31.37;;;24.47;;
11514;SDS011;5814;41.936;25.556;2022-11-06T03:31:24;30.00;;;25.07;;
11514;SDS011;5814;41.936;25.556;2022-11-06T03:33:51;27.97;;;25.00;;
11514;SDS011;5814;41.936;25.556;2022-11-06T03:36:18;28.00;;;24.93;;
11514;SDS011;5814;41.936;25.556;2022-11-06T03:38:47;30.80;;;24.87;;
11514;SDS011;5814;41.936;25.556;2022-11-06T03:41:15;27.97;;;24.97;;
11514;SDS011;5814;41.936;25.556;2022-11-06T03:43:40;28.50;;;25.37;;
11514;SDS011;5814;41.936;25.556;2022-11-06T03:46:09;33.47;;;26.87;;
11514;SDS011;5814;41.936;25.556;2022-11-06T03:48:36;29.20;;;26.23;;
11514;SDS011;5814;41.936;25.556;2022-11-06T03:51:04;30.67;;;27.53;;
11514;SDS011;5814;41.936;25.556;2022-11-06T03:53:36;31.57;;;28.27;;
11514;SDS011;5814;41.936;25.556;2022-11-06T03:56:07;32.10;;;28.77;;
11514;SDS011;5814;41.936;25.556;2022-11-06T03:58:36;32.33;;;29.00;;
11514;SDS011;5814;41.936;25.556;2022-11-06T04:01:03;32.03;;;28.50;;
11514;SDS011;5814;41.936;25.556;2022-11-06T04:03:33;33.30;;;29.67;;
11514;SDS011;5814;41.936;25.556;2022-11-06T04:06:08;32.27;;;29.10;;
11514;SDS011;5814;41.936;25.556;2022-11-06T04:08:42;32.20;;;28.37;;
11514;SDS011;5814;41.936;25.556;2022-11-06T04:11:16;33.20;;;28.53;;
11514;SDS011;5814;41.936;25.556;2022-11-06T04:13:47;31.40;;;28.33;;
11514;SDS011;5814;41.936;25.556;2022-11-06T04:16:20;31.70;;;28.43;;
11514;SDS011;5814;41.936;25.556;2022-11-06T04:18:48;32.40;;;29.03;;
11514;SDS011;5814;41.936;25.556;2022-11-06T04:25:12;31.87;;;28.57;;
11514;SDS011;5814;41.936;25.556;2022-11-06T04:30:05;33.33;;;29.30;;
11514;SDS011;5814;41.936;25.556;2022-11-06T04:32:39;31.67;;;28.43;;
11514;SDS011;5814;41.936;25.556;2022-11-06T04:35:24;32.13;;;28.60;;
11514;SDS011;5814;41.936;25.556;2022-11-06T04:40:31;32.80;;;29.50;;
11514;SDS011;5814;41.936;25.556;2022-11-06T04:43:02;35.10;;;29.03;;
11514;SDS011;5814;41.936;25.556;2022-11-06T04:45:29;33.07;;;29.60;;
11514;SDS011;5814;41.936;25.556;2022-11-06T04:47:57;39.83;;;32.27;;
11514;SDS011;5814;41.936;25.556;2022-11-06T04:50:24;44.60;;;33.33;;
11514;SDS011;5814;41.936;25.556;2022-11-06T04:52:51;37.53;;;33.57;;
11514;SDS011;5814;41.936;25.556;2022-11-06T04:55:19;38.90;;;34.87;;
11514;SDS011;5814;41.936;25.556;2022-11-06T04:57:46;43.27;;;35.93;;
11514;SDS011;5814;41.936;25.556;2022-11-06T05:00:14;40.10;;;35.80;;
11514;SDS011;5814;41.936;25.556;2022-11-06T05:02:42;43.10;;;36.63;;
11514;SDS011;5814;41.936;25.556;2022-11-06T05:05:09;42.70;;;35.13;;
11514;SDS011;5814;41.936;25.556;2022-11-06T05:07:36;38.90;;;34.40;;
11514;SDS011;5814;41.936;25.556;2022-11-06T05:10:04;44.67;;;34.43;;
11514;SDS011;5814;41.936;25.556;2022-11-06T05:12:31;36.47;;;30.50;;
11514;SDS011;5814;41.936;25.556;2022-11-06T05:14:58;34.83;;;30.03;;
11514;SDS011;5814;41.936;25.556;2022-11-06T05:17:26;35.07;;;30.23;;
11514;SDS011;5814;41.936;25.556;2022-11-06T05:19:53;35.83;;;32.13;;
11514;SDS011;5814;41.936;25.556;2022-11-06T05:22:20;38.87;;;34.00;;
11514;SDS011;5814;41.936;25.556;2022-11-06T05:24:53;38.33;;;32.33;;
11514;SDS011;5814;41.936;25.556;2022-11-06T05:27:20;35.23;;;31.43;;
11514;SDS011;5814;41.936;25.556;2022-11-06T05:29:47;38.03;;;29.83;;
11514;SDS011;5814;41.936;25.556;2022-11-06T05:32:14;35.40;;;30.23;;
11514;SDS011;5814;41.936;25.556;2022-11-06T05:34:41;35.57;;;30.17;;
11514;SDS011;5814;41.936;25.556;2022-11-06T05:37:08;36.90;;;31.50;;
11514;SDS011;5814;41.936;25.556;2022-11-06T05:39:36;38.90;;;31.40;;
11514;SDS011;5814;41.936;25.556;2022-11-06T05:42:03;33.13;;;29.57;;
11514;SDS011;5814;41.936;25.556;2022-11-06T05:44:30;32.80;;;28.87;;
11514;SDS011;5814;41.936;25.556;2022-11-06T05:46:57;35.00;;;27.77;;
11514;SDS011;5814;41.936;25.556;2022-11-06T05:49:24;34.03;;;28.57;;
11514;SDS011;5814;41.936;25.556;2022-11-06T05:51:52;37.10;;;28.80;;
11514;SDS011;5814;41.936;25.556;2022-11-06T05:54:19;37.80;;;27.47;;
11514;SDS011;5814;41.936;25.556;2022-11-06T05:56:46;32.43;;;28.90;;
11514;SDS011;5814;41.936;25.556;2022-11-06T05:59:14;30.00;;;26.83;;
11514;SDS011;5814;41.936;25.556;2022-11-06T06:01:41;35.47;;;29.67;;
11514;SDS011;5814;41.936;25.556;2022-11-06T06:04:08;35.90;;;28.13;;
11514;SDS011;5814;41.936;25.556;2022-11-06T06:06:35;32.87;;;28.37;;
11514;SDS011;5814;41.936;25.556;2022-11-06T06:09:02;34.67;;;28.33;;
11514;SDS011;5814;41.936;25.556;2022-11-06T06:11:29;37.93;;;30.03;;
11514;SDS011;5814;41.936;25.556;2022-11-06T06:13:57;33.87;;;28.00;;
11514;SDS011;5814;41.936;25.556;2022-11-06T06:16:24;34.00;;;28.27;;
11514;SDS011;5814;41.936;25.556;2022-11-06T06:18:51;33.37;;;28.90;;
11514;SDS011;5814;41.936;25.556;2022-11-06T06:21:18;31.67;;;28.23;;
11514;SDS011;5814;41.936;25.556;2022-11-06T06:23:45;32.60;;;27.80;;
11514;SDS011;5814;41.936;25.556;2022-11-06T06:26:12;36.20;;;28.00;;
11514;SDS011;5814;41.936;25.556;2022-11-06T06:28:40;35.30;;;27.30;;
11514;SDS011;5814;41.936;25.556;2022-11-06T06:31:07;34.20;;;27.27;;
11514;SDS011;5814;41.936;25.556;2022-11-06T06:33:34;34.83;;;28.60;;
11514;SDS011;5814;41.936;25.556;2022-11-06T06:36:02;36.80;;;29.20;;
11514;SDS011;5814;41.936;25.556;2022-11-06T06:38:28;42.30;;;29.53;;
11514;SDS011;5814;41.936;25.556;2022-11-06T06:40:59;38.13;;;28.77;;
11514;SDS011;5814;41.936;25.556;2022-11-06T06:43:25;33.10;;;28.33;;
11514;SDS011;5814;41.936;25.556;2022-11-06T06:45:52;35.43;;;28.93;;
11514;SDS011;5814;41.936;25.556;2022-11-06T06:48:20;46.03;;;35.37;;
11514;SDS011;5814;41.936;25.556;2022-11-06T06:50:47;50.57;;;35.53;;
11514;SDS011;5814;41.936;25.556;2022-11-06T06:53:14;43.23;;;33.37;;
11514;SDS011;5814;41.936;25.556;2022-11-06T06:55:41;45.07;;;34.30;;
11514;SDS011;5814;41.936;25.556;2022-11-06T06:58:08;53.53;;;38.60;;
11514;SDS011;5814;41.936;25.556;2022-11-06T07:00:36;56.37;;;41.97;;
11514;SDS011;5814;41.936;25.556;2022-11-06T07:03:03;61.37;;;40.73;;
11514;SDS011;5814;41.936;25.556;2022-11-06T07:05:30;55.80;;;39.83;;
11514;SDS011;5814;41.936;25.556;2022-11-06T07:07:57;49.57;;;36.97;;
11514;SDS011;5814;41.936;25.556;2022-11-06T07:10:24;46.60;;;32.20;;
11514;SDS011;5814;41.936;25.556;2022-11-06T07:12:51;41.03;;;30.53;;
11514;SDS011;5814;41.936;25.556;2022-11-06T07:15:19;43.83;;;32.27;;
11514;SDS011;5814;41.936;25.556;2022-11-06T07:17:46;43.07;;;31.57;;
11514;SDS011;5814;41.936;25.556;2022-11-06T07:20:13;37.43;;;29.13;;
11514;SDS011;5814;41.936;25.556;2022-11-06T07:22:40;37.10;;;28.63;;
11514;SDS011;5814;41.936;25.556;2022-11-06T07:25:07;45.23;;;29.80;;
11514;SDS011;5814;41.936;25.556;2022-11-06T07:27:35;46.07;;;30.37;;
11514;SDS011;5814;41.936;25.556;2022-11-06T07:30:03;45.03;;;30.80;;
11514;SDS011;5814;41.936;25.556;2022-11-06T07:32:31;39.30;;;29.23;;
11514;SDS011;5814;41.936;25.556;2022-11-06T07:34:58;46.10;;;32.53;;
11514;SDS011;5814;41.936;25.556;2022-11-06T07:37:25;46.27;;;34.70;;
11514;SDS011;5814;41.936;25.556;2022-11-06T07:39:52;50.70;;;36.53;;
11514;SDS011;5814;41.936;25.556;2022-11-06T07:42:19;56.53;;;36.03;;
11514;SDS011;5814;41.936;25.556;2022-11-06T07:44:46;59.70;;;38.97;;
11514;SDS011;5814;41.936;25.556;2022-11-06T07:47:13;52.70;;;38.40;;
11514;SDS011;5814;41.936;25.556;2022-11-06T07:49:41;56.57;;;37.53;;
11514;SDS011;5814;41.936;25.556;2022-11-06T07:52:08;47.37;;;36.60;;
11514;SDS011;5814;41.936;25.556;2022-11-06T07:54:35;48.47;;;35.60;;
11514;SDS011;5814;41.936;25.556;2022-11-06T07:57:02;46.83;;;35.23;;
11514;SDS011;5814;41.936;25.556;2022-11-06T07:59:29;44.03;;;33.73;;
11514;SDS011;5814;41.936;25.556;2022-11-06T08:01:56;41.43;;;31.00;;
11514;SDS011;5814;41.936;25.556;2022-11-06T08:04:24;36.47;;;30.20;;
11514;SDS011;5814;41.936;25.556;2022-11-06T08:06:51;36.97;;;28.47;;
11514;SDS011;5814;41.936;25.556;2022-11-06T08:09:18;43.33;;;28.67;;
11514;SDS011;5814;41.936;25.556;2022-11-06T08:11:47;41.67;;;28.73;;
11514;SDS011;5814;41.936;25.556;2022-11-06T08:14:12;41.53;;;27.90;;
11514;SDS011;5814;41.936;25.556;2022-11-06T08:16:40;41.20;;;27.30;;
11514;SDS011;5814;41.936;25.556;2022-11-06T08:19:07;31.13;;;24.23;;
11514;SDS011;5814;41.936;25.556;2022-11-06T08:21:34;27.00;;;21.93;;
11514;SDS011;5814;41.936;25.556;2022-11-06T08:24:01;28.00;;;18.97;;
11514;SDS011;5814;41.936;25.556;2022-11-06T08:26:29;29.25;;;18.40;;
11514;SDS011;5814;41.936;25.556;2022-11-06T08:28:56;31.27;;;18.35;;
11514;SDS011;5814;41.936;25.556;2022-11-06T08:31:23;24.77;;;16.33;;
11514;SDS011;5814;41.936;25.556;2022-11-06T08:33:50;31.00;;;17.00;;
11514;SDS011;5814;41.936;25.556;2022-11-06T08:36:18;26.02;;;16.70;;
11514;SDS011;5814;41.936;25.556;2022-11-06T08:38:46;22.25;;;17.15;;
11514;SDS011;5814;41.936;25.556;2022-11-06T08:41:13;20.90;;;17.83;;
11514;SDS011;5814;41.936;25.556;2022-11-06T08:43:40;28.85;;;18.05;;
11514;SDS011;5814;41.936;25.556;2022-11-06T08:46:08;23.98;;;17.85;;
11514;SDS011;5814;41.936;25.556;2022-11-06T08:48:35;23.50;;;17.95;;
11514;SDS011;5814;41.936;25.556;2022-11-06T08:51:03;24.02;;;19.02;;
11514;SDS011;5814;41.936;25.556;2022-11-06T08:53:29;26.95;;;19.02;;
11514;SDS011;5814;41.936;25.556;2022-11-06T08:55:56;23.20;;;17.95;;
11514;SDS011;5814;41.936;25.556;2022-11-06T08:58:23;26.37;;;18.60;;
11514;SDS011;5814;41.936;25.556;2022-11-06T09:00:51;24.35;;;18.83;;
11514;SDS011;5814;41.936;25.556;2022-11-06T09:03:18;24.95;;;17.92;;
11514;SDS011;5814;41.936;25.556;2022-11-06T09:05:45;23.92;;;17.35;;
11514;SDS011;5814;41.936;25.556;2022-11-06T09:08:12;24.58;;;17.67;;
11514;SDS011;5814;41.936;25.556;2022-11-06T09:10:40;25.92;;;17.33;;
11514;SDS011;5814;41.936;25.556;2022-11-06T09:13:06;28.85;;;18.35;;
11514;SDS011;5814;41.936;25.556;2022-11-06T09:15:34;29.40;;;18.12;;
11514;SDS011;5814;41.936;25.556;2022-11-06T09:18:01;24.87;;;18.05;;
11514;SDS011;5814;41.936;25.556;2022-11-06T09:20:28;23.55;;;17.90;;
11514;SDS011;5814;41.936;25.556;2022-11-06T09:22:59;23.38;;;16.20;;
11514;SDS011;5814;41.936;25.556;2022-11-06T09:25:27;23.10;;;17.77;;
11514;SDS011;5814;41.936;25.556;2022-11-06T09:27:54;27.40;;;18.33;;
11514;SDS011;5814;41.936;25.556;2022-11-06T09:30:22;21.12;;;17.77;;
11514;SDS011;5814;41.936;25.556;2022-11-06T09:32:50;22.42;;;18.30;;
11514;SDS011;5814;41.936;25.556;2022-11-06T09:35:16;18.85;;;16.50;;
11514;SDS011;5814;41.936;25.556;2022-11-06T09:37:43;23.60;;;15.80;;
11514;SDS011;5814;41.936;25.556;2022-11-06T09:40:17;25.40;;;15.18;;
11514;SDS011;5814;41.936;25.556;2022-11-06T09:42:49;18.42;;;15.38;;
11514;SDS011;5814;41.936;25.556;2022-11-06T09:45:18;16.75;;;15.00;;
11514;SDS011;5814;41.936;25.556;2022-11-06T09:47:45;15.38;;;13.57;;
11514;SDS011;5814;41.936;25.556;2022-11-06T09:50:13;21.02;;;13.55;;
11514;SDS011;5814;41.936;25.556;2022-11-06T09:52:56;18.15;;;16.08;;
11514;SDS011;5814;41.936;25.556;2022-11-06T09:55:26;15.18;;;13.25;;
11514;SDS011;5814;41.936;25.556;2022-11-06T09:57:55;14.98;;;13.43;;
11514;SDS011;5814;41.936;25.556;2022-11-06T10:00:22;19.95;;;13.75;;
11514;SDS011;5814;41.936;25.556;2022-11-06T10:02:52;22.20;;;14.13;;
11514;SDS011;5814;41.936;25.556;2022-11-06T10:05:26;17.33;;;13.05;;
11514;SDS011;5814;41.936;25.556;2022-11-06T10:07:54;24.50;;;15.20;;
11514;SDS011;5814;41.936;25.556;2022-11-06T10:10:22;16.25;;;14.40;;
11514;SDS011;5814;41.936;25.556;2022-11-06T10:12:56;19.25;;;14.32;;
11514;SDS011;5814;41.936;25.556;2022-11-06T10:15:23;20.33;;;14.27;;
11514;SDS011;5814;41.936;25.556;2022-11-06T10:17:53;15.20;;;12.73;;
11514;SDS011;5814;41.936;25.556;2022-11-06T10:20:28;17.08;;;13.88;;
11514;SDS011;5814;41.936;25.556;2022-11-06T10:23:00;14.48;;;13.02;;
11514;SDS011;5814;41.936;25.556;2022-11-06T10:25:40;20.77;;;13.55;;
11514;SDS011;5814;41.936;25.556;2022-11-06T10:31:07;20.60;;;14.20;;
11514;SDS011;5814;41.936;25.556;2022-11-06T10:33:37;19.20;;;13.82;;
11514;SDS011;5814;41.936;25.556;2022-11-06T10:36:21;16.85;;;13.52;;
11514;SDS011;5814;41.936;25.556;2022-11-06T10:38:49;18.58;;;13.35;;
11514;SDS011;5814;41.936;25.556;2022-11-06T10:41:19;17.27;;;13.07;;
11514;SDS011;5814;41.936;25.556;2022-11-06T10:43:49;17.45;;;13.02;;
11514;SDS011;5814;41.936;25.556;2022-11-06T10:46:17;13.85;;;12.37;;
11514;SDS011;5814;41.936;25.556;2022-11-06T10:48:45;13.40;;;12.18;;
11514;SDS011;5814;41.936;25.556;2022-11-06T10:51:18;15.65;;;11.60;;
11514;SDS011;5814;41.936;25.556;2022-11-06T10:53:50;12.98;;;11.18;;
11514;SDS011;5814;41.936;25.556;2022-11-06T10:56:22;14.82;;;11.63;;
11514;SDS011;5814;41.936;25.556;2022-11-06T10:58:52;16.67;;;11.45;;
11514;SDS011;5814;41.936;25.556;2022-11-06T11:01:19;14.63;;;11.82;;
11514;SDS011;5814;41.936;25.556;2022-11-06T11:03:46;14.87;;;11.50;;
11514;SDS011;5814;41.936;25.556;2022-11-06T11:06:13;12.20;;;11.00;;
11514;SDS011;5814;41.936;25.556;2022-11-06T11:08:42;11.85;;;10.60;;
11514;SDS011;5814;41.936;25.556;2022-11-06T11:11:17;14.68;;;11.48;;
11514;SDS011;5814;41.936;25.556;2022-11-06T11:13:45;20.15;;;14.68;;
11514;SDS011;5814;41.936;25.556;2022-11-06T11:16:13;25.88;;;15.13;;
11514;SDS011;5814;41.936;25.556;2022-11-06T11:18:41;21.62;;;15.25;;
11514;SDS011;5814;41.936;25.556;2022-11-06T11:21:14;22.33;;;16.62;;
11514;SDS011;5814;41.936;25.556;2022-11-06T11:23:40;23.73;;;15.15;;
11514;SDS011;5814;41.936;25.556;2022-11-06T11:26:19;22.67;;;15.38;;
11514;SDS011;5814;41.936;25.556;2022-11-06T11:28:49;20.85;;;14.18;;
11514;SDS011;5814;41.936;25.556;2022-11-06T11:31:15;16.27;;;13.32;;
11514;SDS011;5814;41.936;25.556;2022-11-06T11:33:48;18.02;;;13.35;;
11514;SDS011;5814;41.936;25.556;2022-11-06T11:36:14;15.68;;;12.57;;
11514;SDS011;5814;41.936;25.556;2022-11-06T11:38:41;16.55;;;13.13;;
11514;SDS011;5814;41.936;25.556;2022-11-06T11:41:11;17.67;;;13.65;;
11514;SDS011;5814;41.936;25.556;2022-11-06T11:43:40;17.92;;;13.38;;
11514;SDS011;5814;41.936;25.556;2022-11-06T11:46:16;19.30;;;14.02;;
11514;SDS011;5814;41.936;25.556;2022-11-06T11:48:48;14.00;;;12.02;;
11514;SDS011;5814;41.936;25.556;2022-11-06T11:51:24;14.30;;;12.60;;
11514;SDS011;5814;41.936;25.556;2022-11-06T11:53:49;14.80;;;12.02;;
11514;SDS011;5814;41.936;25.556;2022-11-06T11:56:17;13.80;;;11.55;;
11514;SDS011;5814;41.936;25.556;2022-11-06T11:58:48;11.90;;;10.80;;
11514;SDS011;5814;41.936;25.556;2022-11-06T12:01:15;12.15;;;11.00;;
11514;SDS011;5814;41.936;25.556;2022-11-06T12:03:42;12.40;;;10.95;;
11514;SDS011;5814;41.936;25.556;2022-11-06T12:06:10;16.35;;;11.45;;
11514;SDS011;5814;41.936;25.556;2022-11-06T12:08:37;11.82;;;10.63;;
11514;SDS011;5814;41.936;25.556;2022-11-06T12:11:03;11.95;;;10.52;;
11514;SDS011;5814;41.936;25.556;2022-11-06T12:13:31;11.95;;;10.85;;
11514;SDS011;5814;41.936;25.556;2022-11-06T12:15:59;11.18;;;10.13;;
11514;SDS011;5814;41.936;25.556;2022-11-06T12:18:30;12.15;;;9.70;;
11514;SDS011;5814;41.936;25.556;2022-11-06T12:20:58;10.85;;;9.73;;
11514;SDS011;5814;41.936;25.556;2022-11-06T12:23:33;10.45;;;9.45;;
11514;SDS011;5814;41.936;25.556;2022-11-06T12:26:05;11.02;;;9.98;;
11514;SDS011;5814;41.936;25.556;2022-11-06T12:28:31;10.38;;;9.38;;
11514;SDS011;5814;41.936;25.556;2022-11-06T12:30:59;14.65;;;9.40;;
11514;SDS011;5814;41.936;25.556;2022-11-06T12:33:26;12.73;;;9.95;;
11514;SDS011;5814;41.936;25.556;2022-11-06T12:35:56;12.10;;;10.32;;
11514;SDS011;5814;41.936;25.556;2022-11-06T12:38:26;11.12;;;9.32;;
11514;SDS011;5814;41.936;25.556;2022-11-06T12:41:29;11.30;;;9.80;;
11514;SDS011;5814;41.936;25.556;2022-11-06T12:43:44;15.23;;;10.68;;
11514;SDS011;5814;41.936;25.556;2022-11-06T12:46:16;15.57;;;10.43;;
11514;SDS011;5814;41.936;25.556;2022-11-06T12:48:48;12.60;;;10.43;;
11514;SDS011;5814;41.936;25.556;2022-11-06T12:51:15;12.43;;;9.43;;
11514;SDS011;5814;41.936;25.556;2022-11-06T12:53:47;20.12;;;13.10;;
11514;SDS011;5814;41.936;25.556;2022-11-06T12:56:30;11.52;;;9.73;;
11514;SDS011;5814;41.936;25.556;2022-11-06T12:58:59;13.15;;;9.52;;
11514;SDS011;5814;41.936;25.556;2022-11-06T13:01:28;12.82;;;9.60;;
11514;SDS011;5814;41.936;25.556;2022-11-06T13:03:56;20.27;;;14.63;;
11514;SDS011;5814;41.936;25.556;2022-11-06T13:06:48;12.20;;;9.70;;
11514;SDS011;5814;41.936;25.556;2022-11-06T13:09:11;10.98;;;9.95;;
11514;SDS011;5814;41.936;25.556;2022-11-06T13:14:15;8.88;;;8.07;;
11514;SDS011;5814;41.936;25.556;2022-11-06T13:16:52;10.10;;;8.68;;
11514;SDS011;5814;41.936;25.556;2022-11-06T13:19:23;9.77;;;8.95;;
11514;SDS011;5814;41.936;25.556;2022-11-06T13:21:59;11.30;;;9.43;;
11514;SDS011;5814;41.936;25.556;2022-11-06T13:27:27;11.20;;;10.05;;
11514;SDS011;5814;41.936;25.556;2022-11-06T13:29:58;10.48;;;8.73;;
11514;SDS011;5814;41.936;25.556;2022-11-06T13:32:23;10.75;;;9.50;;
11514;SDS011;5814;41.936;25.556;2022-11-06T13:34:51;10.30;;;8.50;;
11514;SDS011;5814;41.936;25.556;2022-11-06T13:37:18;12.98;;;9.40;;
11514;SDS011;5814;41.936;25.556;2022-11-06T13:39:47;11.23;;;9.80;;
11514;SDS011;5814;41.936;25.556;2022-11-06T13:42:22;10.20;;;9.23;;
11514;SDS011;5814;41.936;25.556;2022-11-06T13:44:48;12.90;;;9.77;;
11514;SDS011;5814;41.936;25.556;2022-11-06T13:47:18;14.10;;;9.15;;
11514;SDS011;5814;41.936;25.556;2022-11-06T13:49:53;13.13;;;9.85;;
11514;SDS011;5814;41.936;25.556;2022-11-06T13:52:26;10.35;;;9.27;;
11514;SDS011;5814;41.936;25.556;2022-11-06T13:55:06;10.40;;;9.38;;
11514;SDS011;5814;41.936;25.556;2022-11-06T14:00:32;10.07;;;8.48;;
11514;SDS011;5814;41.936;25.556;2022-11-06T14:05:39;10.50;;;9.13;;
11514;SDS011;5814;41.936;25.556;2022-11-06T14:08:03;12.75;;;8.82;;
11514;SDS011;5814;41.936;25.556;2022-11-06T14:10:34;14.18;;;9.27;;
11514;SDS011;5814;41.936;25.556;2022-11-06T14:13:00;11.93;;;8.70;;
11514;SDS011;5814;41.936;25.556;2022-11-06T14:15:29;10.23;;;8.23;;
11514;SDS011;5814;41.936;25.556;2022-11-06T14:17:55;10.35;;;8.60;;
11514;SDS011;5814;41.936;25.556;2022-11-06T14:20:29;10.65;;;8.57;;
11514;SDS011;5814;41.936;25.556;2022-11-06T14:25:57;8.60;;;7.70;;
11514;SDS011;5814;41.936;25.556;2022-11-06T14:28:34;9.15;;;8.27;;
11514;SDS011;5814;41.936;25.556;2022-11-06T14:31:01;10.68;;;8.40;;
11514;SDS011;5814;41.936;25.556;2022-11-06T14:36:27;9.02;;;8.35;;
11514;SDS011;5814;41.936;25.556;2022-11-06T14:38:53;10.75;;;9.30;;
11514;SDS011;5814;41.936;25.556;2022-11-06T14:43:59;10.82;;;9.68;;
11514;SDS011;5814;41.936;25.556;2022-11-06T14:46:26;10.57;;;9.15;;
11514;SDS011;5814;41.936;25.556;2022-11-06T14:48:54;10.25;;;8.73;;
11514;SDS011;5814;41.936;25.556;2022-11-06T14:51:25;9.43;;;7.70;;
11514;SDS011;5814;41.936;25.556;2022-11-06T14:53:52;9.77;;;8.80;;
11514;SDS011;5814;41.936;25.556;2022-11-06T14:56:20;10.88;;;9.57;;
11514;SDS011;5814;41.936;25.556;2022-11-06T14:58:48;12.15;;;10.20;;
11514;SDS011;5814;41.936;25.556;2022-11-06T15:01:15;10.90;;;9.50;;
11514;SDS011;5814;41.936;25.556;2022-11-06T15:03:48;10.18;;;9.18;;
11514;SDS011;5814;41.936;25.556;2022-11-06T15:12:04;12.48;;;9.75;;
11514;SDS011;5814;41.936;25.556;2022-11-06T15:17:14;11.10;;;8.73;;
11514;SDS011;5814;41.936;25.556;2022-11-06T15:19:42;12.88;;;9.60;;
11514;SDS011;5814;41.936;25.556;2022-11-06T15:22:19;13.50;;;10.13;;